Time;durP1;ratioP1;P1;durP2;ratioP2;P2;SDS_P1;SDS_P2;PMS_P1;PMS_P2;Temp;Humidity;BMP_temperature;BMP_pressure;BME280_temperature;BME280_humidity;BME280_pressure;Samples;Min_cycle;Max_cycle;Signal;HPM_P1;HPM_P2
2023/03/21 00:00:06;;;;;;;14.40;7.80;;;10.10;96.60;;;;;;1943371;74;21287;-59
2023/03/21 00:02:34;;;;;;;7.15;5.20;;;10.10;96.50;;;;;;1943288;74;21214;-59
2023/03/21 00:05:03;;;;;;;11.00;5.17;;;10.20;96.60;;;;;;1943457;74;21391;-59
2023/03/21 00:07:32;;;;;;;6.40;3.12;;;10.20;96.60;;;;;;1943454;74;21243;-59
2023/03/21 00:10:01;;;;;;;3.30;2.55;;;10.20;96.50;;;;;;1943329;73;21138;-59
2023/03/21 00:12:31;;;;;;;3.92;2.80;;;10.20;96.40;;;;;;1943226;74;21122;-58
2023/03/21 00:15:04;;;;;;;1.95;1.47;;;10.20;96.50;;;;;;1943183;74;21257;-58
2023/03/21 00:17:31;;;;;;;2.85;1.77;;;10.20;96.50;;;;;;1942664;74;21170;-59
2023/03/21 00:20:00;;;;;;;1.77;1.20;;;10.30;96.40;;;;;;1943199;74;21197;-59
2023/03/21 00:22:29;;;;;;;1.15;1.05;;;10.20;96.40;;;;;;1943225;74;21031;-59
2023/03/21 00:24:58;;;;;;;1.10;0.90;;;10.20;96.30;;;;;;1943241;74;21331;-59
2023/03/21 00:27:28;;;;;;;1.72;0.70;;;10.20;96.30;;;;;;1943358;74;21011;-59
2023/03/21 00:29:57;;;;;;;1.70;1.15;;;10.20;96.30;;;;;;1943328;74;21321;-58
2023/03/21 00:32:26;;;;;;;1.15;0.80;;;10.20;96.20;;;;;;1943235;74;21268;-58
2023/03/21 00:34:55;;;;;;;1.22;0.88;;;10.20;96.30;;;;;;1943249;74;21273;-58
2023/03/21 00:37:27;;;;;;;1.62;1.07;;;10.20;96.20;;;;;;1943185;74;21248;-59
2023/03/21 00:39:54;;;;;;;0.70;0.70;;;10.20;96.20;;;;;;1943536;74;21522;-59
2023/03/21 00:42:23;;;;;;;1.40;1.15;;;10.20;96.20;;;;;;1943171;74;21134;-59
2023/03/21 00:44:53;;;;;;;2.27;1.82;;;10.20;96.10;;;;;;1943356;74;21273;-59
2023/03/21 00:47:22;;;;;;;1.10;0.72;;;10.20;96.10;;;;;;1943212;74;21054;-59
2023/03/21 00:49:51;;;;;;;1.42;0.90;;;10.20;96.10;;;;;;1943374;74;21006;-58
2023/03/21 00:52:20;;;;;;;2.33;0.93;;;10.20;96.10;;;;;;1943312;74;21118;-58
2023/03/21 00:54:50;;;;;;;0.60;0.60;;;10.20;96.00;;;;;;1943215;74;21091;-58
2023/03/21 00:57:19;;;;;;;1.52;0.95;;;10.20;95.90;;;;;;1943179;74;21110;-58
2023/03/21 00:59:48;;;;;;;0.98;0.80;;;10.20;95.90;;;;;;1943233;74;21118;-59
2023/03/21 01:02:21;;;;;;;1.25;0.70;;;10.20;95.90;;;;;;1943170;74;21243;-59
2023/03/21 01:04:47;;;;;;;1.57;0.60;;;10.20;95.90;;;;;;1942573;74;21158;-59
2023/03/21 01:07:16;;;;;;;1.30;1.00;;;10.20;95.60;;;;;;1943392;74;21244;-59
2023/03/21 01:09:46;;;;;;;0.40;0.40;;;10.20;95.70;;;;;;1943377;74;21067;-61
2023/03/21 01:12:15;;;;;;;1.75;1.30;;;10.20;95.60;;;;;;1943452;74;21151;-61
2023/03/21 01:14:44;;;;;;;1.12;0.80;;;10.10;95.80;;;;;;1943191;74;21303;-61
2023/03/21 01:17:14;;;;;;;1.75;0.80;;;10.20;95.80;;;;;;1943328;74;21216;-61
2023/03/21 01:19:43;;;;;;;0.78;0.70;;;10.10;95.70;;;;;;1943198;74;21124;-61
2023/03/21 01:22:12;;;;;;;1.20;0.72;;;10.20;95.70;;;;;;1943198;74;21137;-60
2023/03/21 01:24:41;;;;;;;0.75;0.60;;;10.20;95.70;;;;;;1943182;74;21399;-61
2023/03/21 01:27:10;;;;;;;2.12;1.40;;;10.20;95.70;;;;;;1943163;74;21576;-59
2023/03/21 01:29:39;;;;;;;1.92;1.47;;;10.20;95.60;;;;;;1943354;74;20984;-59
2023/03/21 01:32:08;;;;;;;0.62;0.62;;;10.20;95.60;;;;;;1943307;74;21194;-59
2023/03/21 01:34:37;;;;;;;1.98;0.80;;;10.20;95.60;;;;;;1943166;74;21080;-59
2023/03/21 01:37:07;;;;;;;3.98;1.80;;;10.20;95.50;;;;;;1943289;74;21264;-59
2023/03/21 01:39:37;;;;;;;2.75;1.00;;;10.20;95.40;;;;;;1941658;74;21197;-58
2023/03/21 01:42:06;;;;;;;1.35;0.90;;;10.20;95.30;;;;;;1943223;74;21271;-59
2023/03/21 01:44:56;;;;;;;0.82;0.62;;;10.20;95.30;;;;;;1943192;74;21148;-59
2023/03/21 01:47:27;;;;;;;0.90;0.80;;;10.20;95.50;;;;;;1942759;74;21265;-61
2023/03/21 01:50:00;;;;;;;0.88;0.80;;;10.10;95.40;;;;;;1943114;74;21130;-59
2023/03/21 01:52:34;;;;;;;2.58;0.70;;;10.20;95.20;;;;;;1941234;74;21182;-59
2023/03/21 01:55:06;;;;;;;1.07;0.55;;;10.20;95.40;;;;;;1943173;74;21066;-58
2023/03/21 01:57:40;;;;;;;0.70;0.57;;;10.20;95.40;;;;;;1941769;74;21615;-58
2023/03/21 02:00:14;;;;;;;1.05;0.70;;;10.20;95.30;;;;;;1943372;74;20995;-58
2023/03/21 02:02:50;;;;;;;;;;;10.20;95.20;;;;;;1942182;74;21106;-59
2023/03/21 02:05:24;;;;;;;3.72;0.80;;;10.20;95.20;;;;;;1940241;74;20973;-59
2023/03/21 02:07:53;;;;;;;0.60;0.50;;;10.20;95.10;;;;;;1942605;74;21146;-61
2023/03/21 02:10:23;;;;;;;1.92;0.80;;;10.10;95.20;;;;;;1943360;74;21211;-59
2023/03/21 02:12:55;;;;;;;1.82;1.22;;;10.20;95.30;;;;;;1943323;74;21636;-59
2023/03/21 02:15:26;;;;;;;2.27;1.12;;;10.20;95.50;;;;;;1943253;74;21244;-59
2023/03/21 02:18:17;;;;;;;1.25;1.00;;;10.20;95.30;;;;;;1942023;74;21589;-59
2023/03/21 02:20:53;;;;;;;;;;;10.20;95.30;;;;;;1945430;74;21063;-59
2023/03/21 02:23:22;;;;;;;0.72;0.70;;;10.20;95.20;;;;;;1933557;74;20092;-61
2023/03/21 02:25:55;;;;;;;1.85;1.07;;;10.20;95.10;;;;;;1941390;74;21158;-61
2023/03/21 02:28:37;;;;;;;1.60;1.05;;;10.20;95.20;;;;;;1943334;74;21026;-59
2023/03/21 02:31:15;;;;;;;3.98;1.10;;;10.30;95.10;;;;;;1925342;74;21426;-61
2023/03/21 02:33:52;;;;;;;2.83;1.02;;;10.30;95.10;;;;;;1943204;74;21180;-61
2023/03/21 02:36:49;;;;;;;5.30;2.25;;;10.30;95.20;;;;;;1942784;74;21152;-60
2023/03/21 02:39:33;;;;;;;0.88;0.80;;;10.30;95.20;;;;;;1930967;74;21228;-61
2023/03/21 02:42:10;;;;;;;0.88;0.62;;;10.30;95.10;;;;;;1942247;74;21174;-61
2023/03/21 02:44:51;;;;;;;1.00;0.65;;;10.30;95.10;;;;;;1941282;74;21485;-61
2023/03/21 02:47:24;;;;;;;2.22;1.40;;;10.30;95.00;;;;;;1942788;74;21078;-60
2023/03/21 02:50:08;;;;;;;1.77;1.10;;;10.30;95.10;;;;;;1942742;74;21204;-59
2023/03/21 02:52:39;;;;;;;0.90;0.70;;;10.40;95.00;;;;;;1943094;74;21642;-61
2023/03/21 02:55:15;;;;;;;7.05;1.47;;;10.30;95.00;;;;;;1943033;74;21194;-59
2023/03/21 02:57:55;;;;;;;;;;;10.30;94.90;;;;;;1943091;74;21076;-60
2023/03/21 03:00:33;;;;;;;3.72;0.90;;;10.30;94.90;;;;;;1935578;74;20582;-61
2023/03/21 03:03:03;;;;;;;0.85;0.68;;;10.40;94.80;;;;;;1935588;74;21032;-61
2023/03/21 03:05:34;;;;;;;2.20;1.00;;;10.30;95.00;;;;;;1935570;74;21063;-60
2023/03/21 03:08:25;;;;;;;1.20;0.68;;;10.30;94.90;;;;;;1935810;74;21422;-61
2023/03/21 03:11:14;;;;;;;0.40;0.40;;;10.40;95.00;;;;;;1935539;74;21087;-60
2023/03/21 03:13:56;;;;;;;0.60;0.60;;;10.40;94.90;;;;;;1934359;74;21111;-60
2023/03/21 03:17:00;;;;;;;0.70;0.70;;;10.40;94.80;;;;;;1935516;74;21093;-60
2023/03/21 03:19:32;;;;;;;2.37;1.17;;;10.40;94.70;;;;;;1935581;74;21158;-61
2023/03/21 03:22:06;;;;;;;2.25;0.85;;;10.40;94.80;;;;;;1935493;74;21185;-61
2023/03/21 03:24:40;;;;;;;1.60;1.30;;;10.30;94.80;;;;;;1935556;74;21184;-60
2023/03/21 03:27:17;;;;;;;1.00;0.80;;;10.40;94.80;;;;;;1935359;74;21608;-60
2023/03/21 03:29:48;;;;;;;1.42;0.90;;;10.40;94.80;;;;;;1934745;74;21186;-60
2023/03/21 03:32:25;;;;;;;4.10;1.37;;;10.40;94.80;;;;;;1935428;74;21102;-60
2023/03/21 03:34:56;;;;;;;0.98;0.80;;;10.40;94.80;;;;;;1920101;74;21160;-61
2023/03/21 03:37:29;;;;;;;1.40;0.82;;;10.40;94.80;;;;;;1935497;74;21074;-60
2023/03/21 03:40:16;;;;;;;1.75;1.37;;;10.40;94.80;;;;;;1935828;74;21104;-60
2023/03/21 03:42:56;;;;;;;3.15;1.12;;;10.40;94.80;;;;;;1934134;74;22407;-60
2023/03/21 03:45:31;;;;;;;3.00;1.17;;;10.40;94.80;;;;;;1934636;74;21090;-60
2023/03/21 03:48:31;;;;;;;1.82;1.10;;;10.40;94.80;;;;;;1909818;74;21108;-60
2023/03/21 03:51:06;;;;;;;2.22;1.20;;;10.40;94.80;;;;;;1935602;74;21506;-60
2023/03/21 03:53:48;;;;;;;3.02;1.75;;;10.40;94.80;;;;;;1932574;74;21071;-60
2023/03/21 03:56:17;;;;;;;1.60;0.93;;;10.40;94.80;;;;;;1934700;74;21507;-60
2023/03/21 03:58:46;;;;;;;1.92;1.07;;;10.40;94.80;;;;;;1941231;74;21163;-60
2023/03/21 04:01:18;;;;;;;2.25;1.47;;;10.50;94.80;;;;;;1948865;74;21110;-60
2023/03/21 04:03:48;;;;;;;2.85;1.42;;;10.50;94.90;;;;;;1948781;74;21149;-60
2023/03/21 04:06:19;;;;;;;4.22;1.27;;;10.50;94.90;;;;;;1948778;74;21074;-60
2023/03/21 04:08:49;;;;;;;1.47;1.00;;;10.60;94.80;;;;;;1912066;74;21174;-60
2023/03/21 04:11:19;;;;;;;3.08;1.47;;;10.50;94.80;;;;;;1948751;73;21206;-60
2023/03/21 04:13:50;;;;;;;2.87;1.55;;;10.60;94.80;;;;;;1948358;74;21122;-60
2023/03/21 04:16:22;;;;;;;4.40;3.08;;;10.60;94.80;;;;;;1947073;74;21145;-60
2023/03/21 04:18:51;;;;;;;5.65;4.87;;;10.60;94.90;;;;;;1948791;73;21082;-60
2023/03/21 04:21:20;;;;;;;2.55;2.20;;;10.60;94.80;;;;;;1948865;74;21074;-60
2023/03/21 04:23:49;;;;;;;3.10;2.08;;;10.60;94.80;;;;;;1948629;73;21213;-60
2023/03/21 04:26:21;;;;;;;4.58;2.67;;;10.70;94.80;;;;;;1948571;73;21082;-60
2023/03/21 04:28:52;;;;;;;2.72;1.65;;;10.70;94.80;;;;;;1889528;74;21125;-60
2023/03/21 04:31:25;;;;;;;4.58;1.80;;;10.70;94.60;;;;;;1944266;74;21101;-60
2023/03/21 04:33:54;;;;;;;5.28;3.22;;;10.70;94.70;;;;;;1948678;74;21546;-60
2023/03/21 04:36:26;;;;;;;7.75;3.40;;;10.70;94.70;;;;;;1948653;73;21134;-60
2023/03/21 04:39:00;;;;;;;4.50;1.92;;;10.70;94.80;;;;;;1948572;73;21201;-60
2023/03/21 04:41:29;;;;;;;8.55;3.08;;;10.70;94.70;;;;;;1948302;74;21386;-60
2023/03/21 04:43:58;;;;;;;13.55;5.12;;;10.70;94.70;;;;;;1948566;74;21200;-60
2023/03/21 04:46:27;;;;;;;4.33;2.35;;;10.70;94.40;;;;;;1948718;74;21209;-60
2023/03/21 04:48:56;;;;;;;6.70;3.65;;;10.70;94.50;;;;;;1948751;74;21450;-60
2023/03/21 04:51:26;;;;;;;10.50;6.10;;;10.70;94.40;;;;;;1948692;73;21067;-60
2023/03/21 04:53:58;;;;;;;12.20;6.42;;;10.70;94.60;;;;;;1948767;73;21062;-60
2023/03/21 04:56:31;;;;;;;12.53;6.20;;;10.70;94.70;;;;;;1901685;73;21228;-60
2023/03/21 04:59:08;;;;;;;7.67;3.22;;;10.70;94.70;;;;;;1895568;76;21154;-60
2023/03/21 05:01:40;;;;;;;5.00;2.75;;;10.80;94.90;;;;;;1895040;76;21215;-60
2023/03/21 05:04:09;;;;;;;3.00;1.40;;;10.80;94.80;;;;;;1895552;76;21271;-60
2023/03/21 05:06:45;;;;;;;2.00;1.67;;;10.80;94.70;;;;;;1895487;76;21222;-60
2023/03/21 05:09:11;;;;;;;4.78;2.10;;;10.80;94.50;;;;;;1894933;76;21093;-60
2023/03/21 05:11:41;;;;;;;2.50;1.52;;;10.80;94.60;;;;;;1895581;76;21073;-60
2023/03/21 05:14:14;;;;;;;2.20;1.67;;;10.80;94.60;;;;;;1895645;76;21072;-60
2023/03/21 05:16:47;;;;;;;2.55;1.62;;;10.80;94.60;;;;;;1895550;76;21621;-60
2023/03/21 05:19:17;;;;;;;4.50;2.17;;;10.90;94.70;;;;;;1895574;76;21202;-60
2023/03/21 05:21:47;;;;;;;2.62;1.47;;;10.90;94.70;;;;;;1895607;76;21459;-59
2023/03/21 05:24:22;;;;;;;3.83;2.47;;;10.90;94.50;;;;;;1894811;74;21244;-60
2023/03/21 05:26:54;;;;;;;5.58;1.98;;;10.90;94.60;;;;;;1895623;76;21004;-60
2023/03/21 05:29:24;;;;;;;2.10;1.30;;;10.90;94.50;;;;;;1895796;76;21013;-60
2023/03/21 05:32:01;;;;;;;1.95;1.37;;;10.90;94.30;;;;;;1894875;76;21126;-60
2023/03/21 05:34:30;;;;;;;1.82;1.00;;;10.90;94.10;;;;;;1895723;76;21107;-60
2023/03/21 05:37:00;;;;;;;1.60;0.90;;;10.90;94.10;;;;;;1895761;76;21033;-60
2023/03/21 05:39:30;;;;;;;2.25;1.82;;;10.90;94.20;;;;;;1893595;76;21506;-60
2023/03/21 05:42:01;;;;;;;2.62;1.82;;;11.00;94.30;;;;;;1894535;76;21598;-60
2023/03/21 05:44:31;;;;;;;3.37;1.82;;;11.00;94.40;;;;;;1895653;76;21113;-60
2023/03/21 05:47:03;;;;;;;2.35;1.50;;;11.10;94.50;;;;;;1895579;76;21500;-59
2023/03/21 05:49:33;;;;;;;3.30;1.40;;;11.10;94.50;;;;;;1894295;76;21104;-60
2023/03/21 05:52:03;;;;;;;3.75;1.85;;;11.20;94.30;;;;;;1895682;76;21587;-60
2023/03/21 05:54:33;;;;;;;3.85;1.75;;;11.20;94.20;;;;;;1896020;76;21153;-59
2023/03/21 05:57:04;;;;;;;4.33;1.45;;;11.20;94.30;;;;;;1864131;76;21314;-60
2023/03/21 05:59:51;;;;;;;4.17;1.90;;;11.20;94.20;;;;;;1857237;77;21062;-60
2023/03/21 06:02:20;;;;;;;4.65;2.47;;;11.20;94.10;;;;;;1857025;77;21135;-60
2023/03/21 06:04:51;;;;;;;6.42;2.77;;;11.30;94.20;;;;;;1857217;77;21158;-60
2023/03/21 06:07:22;;;;;;;42.65;19.42;;;11.30;94.20;;;;;;1857300;76;21480;-60
2023/03/21 06:09:51;;;;;;;14.00;6.25;;;11.30;94.20;;;;;;1857265;77;21173;-60
2023/03/21 06:12:20;;;;;;;6.20;3.25;;;11.40;94.20;;;;;;1857400;77;21045;-61
2023/03/21 06:15:07;;;;;;;6.87;2.65;;;11.40;94.10;;;;;;1856038;77;21282;-60
2023/03/21 06:17:38;;;;;;;4.50;2.35;;;11.40;94.10;;;;;;1856129;77;21067;-60
2023/03/21 06:20:10;;;;;;;6.67;2.00;;;11.40;94.00;;;;;;1856852;76;21546;-60
2023/03/21 06:22:47;;;;;;;2.67;1.42;;;11.40;93.80;;;;;;1856231;77;21132;-60
2023/03/21 06:25:16;;;;;;;2.75;1.90;;;11.40;93.90;;;;;;1857105;77;21137;-59
2023/03/21 06:27:45;;;;;;;1.82;1.60;;;11.40;94.00;;;;;;1857156;77;21041;-60
2023/03/21 06:30:15;;;;;;;5.65;1.60;;;11.50;94.00;;;;;;1857049;77;21536;-60
2023/03/21 06:33:03;;;;;;;1.42;1.20;;;11.50;94.10;;;;;;1856972;77;21558;-60
2023/03/21 06:35:32;;;;;;;5.45;2.00;;;11.50;93.90;;;;;;1857055;77;21045;-59
2023/03/21 06:38:02;;;;;;;4.40;1.80;;;11.50;93.80;;;;;;1857044;77;21151;-60
2023/03/21 06:40:33;;;;;;;1.98;1.30;;;11.50;93.80;;;;;;1856895;77;21103;-60
2023/03/21 06:43:03;;;;;;;4.30;2.15;;;11.60;93.50;;;;;;1857085;77;21061;-60
2023/03/21 06:45:32;;;;;;;7.08;2.02;;;11.50;93.50;;;;;;1857171;76;21118;-60
2023/03/21 06:48:01;;;;;;;5.70;2.27;;;11.50;93.50;;;;;;1857213;77;21046;-60
2023/03/21 06:50:35;;;;;;;5.75;1.85;;;11.50;93.50;;;;;;1856134;76;21533;-59
2023/03/21 06:53:04;;;;;;;3.95;1.72;;;11.50;93.50;;;;;;1857270;77;21162;-60
2023/03/21 06:55:35;;;;;;;5.53;1.42;;;11.50;93.30;;;;;;1856827;77;21557;-60
2023/03/21 06:58:05;;;;;;;2.35;1.20;;;11.50;93.50;;;;;;1857308;76;21045;-59
2023/03/21 07:00:34;;;;;;;3.62;1.50;;;11.60;93.60;;;;;;1857191;77;21159;-60
2023/03/21 07:03:03;;;;;;;2.58;1.05;;;11.60;93.30;;;;;;1857221;77;21444;-60
2023/03/21 07:05:32;;;;;;;0.98;0.80;;;11.60;93.40;;;;;;1857291;77;21005;-60
2023/03/21 07:08:02;;;;;;;1.57;1.02;;;11.70;93.40;;;;;;1857248;77;21127;-60
2023/03/21 07:10:32;;;;;;;3.25;1.27;;;11.70;93.10;;;;;;1857306;77;21115;-60
2023/03/21 07:13:02;;;;;;;5.58;2.95;;;11.70;93.20;;;;;;1856214;77;21056;-60
2023/03/21 07:15:37;;;;;;;5.25;3.20;;;11.70;93.20;;;;;;1855751;77;21045;-60
2023/03/21 07:18:07;;;;;;;1.47;1.10;;;11.80;93.10;;;;;;1857218;77;21041;-60
2023/03/21 07:20:37;;;;;;;9.00;2.67;;;11.80;93.10;;;;;;1857309;77;21038;-59
2023/03/21 07:23:07;;;;;;;1.77;1.10;;;11.80;93.10;;;;;;1857155;77;21013;-60
2023/03/21 07:25:35;;;;;;;3.08;2.05;;;11.90;93.10;;;;;;1857140;77;21033;-60
2023/03/21 07:28:07;;;;;;;2.70;1.50;;;11.90;92.80;;;;;;1857190;77;21062;-59
2023/03/21 07:30:36;;;;;;;2.27;1.60;;;11.90;92.70;;;;;;1857072;77;21087;-60
2023/03/21 07:33:06;;;;;;;4.22;2.15;;;11.90;92.60;;;;;;1857126;77;21058;-60
2023/03/21 07:35:36;;;;;;;3.55;1.70;;;11.90;92.70;;;;;;1857248;77;21037;-59
2023/03/21 07:38:06;;;;;;;4.10;2.40;;;11.90;92.60;;;;;;1857218;77;21119;-60
2023/03/21 07:40:35;;;;;;;2.08;1.30;;;11.90;92.70;;;;;;1857307;76;21037;-59
2023/03/21 07:43:04;;;;;;;4.28;2.35;;;11.90;92.80;;;;;;1857171;77;21162;-60
2023/03/21 07:45:35;;;;;;;10.65;1.35;;;12.00;92.90;;;;;;1856841;77;21064;-60
2023/03/21 07:48:06;;;;;;;1.90;1.07;;;12.00;92.70;;;;;;1856902;76;21060;-60
2023/03/21 07:50:35;;;;;;;6.30;1.35;;;12.10;92.70;;;;;;1856926;76;21103;-60
2023/03/21 07:53:04;;;;;;;1.82;1.65;;;12.10;92.80;;;;;;1856886;76;21456;-60
2023/03/21 07:55:37;;;;;;;1.20;1.02;;;12.10;92.60;;;;;;1856874;77;21252;-60
2023/03/21 07:58:06;;;;;;;1.70;1.20;;;12.10;92.50;;;;;;1868723;76;21077;-60
2023/03/21 08:00:35;;;;;;;4.30;1.98;;;12.20;92.60;;;;;;1874160;76;21058;-59
2023/03/21 08:03:05;;;;;;;7.47;1.32;;;12.20;92.60;;;;;;1874340;76;21111;-59
2023/03/21 08:05:37;;;;;;;7.72;2.75;;;12.20;92.60;;;;;;1874269;76;21034;-60
2023/03/21 08:08:07;;;;;;;3.98;2.45;;;12.30;92.30;;;;;;1874327;76;21014;-60
2023/03/21 08:10:35;;;;;;;5.60;1.50;;;12.30;92.30;;;;;;1874292;76;21034;-59
2023/03/21 08:13:05;;;;;;;5.62;1.37;;;12.30;92.40;;;;;;1874305;76;21046;-59
2023/03/21 08:15:34;;;;;;;4.20;1.52;;;12.40;92.20;;;;;;1874296;76;21064;-59
2023/03/21 08:18:03;;;;;;;1.87;1.22;;;12.40;92.30;;;;;;1874419;76;21014;-59
2023/03/21 08:20:32;;;;;;;3.72;1.77;;;12.40;92.10;;;;;;1874475;76;21045;-59
2023/03/21 08:23:02;;;;;;;2.72;0.82;;;12.40;92.10;;;;;;1874320;76;21096;-58
2023/03/21 08:25:32;;;;;;;3.77;1.22;;;12.50;91.90;;;;;;1873768;76;21022;-59
2023/03/21 08:28:01;;;;;;;2.10;1.25;;;12.50;91.90;;;;;;1874524;76;21100;-59
2023/03/21 08:30:30;;;;;;;6.12;1.35;;;12.50;92.00;;;;;;1874329;76;21046;-58
2023/03/21 08:33:00;;;;;;;8.63;5.03;;;12.60;91.80;;;;;;1874408;75;21485;-59
2023/03/21 08:35:30;;;;;;;6.97;2.37;;;12.60;91.30;;;;;;1872757;76;21100;-58
2023/03/21 08:38:00;;;;;;;2.75;1.45;;;12.70;91.30;;;;;;1872064;76;21078;-58
2023/03/21 08:40:28;;;;;;;2.47;1.20;;;12.70;91.20;;;;;;1866758;76;21010;-58
2023/03/21 08:42:58;;;;;;;3.27;1.02;;;12.80;91.10;;;;;;1871268;76;20986;-59
2023/03/21 08:45:27;;;;;;;6.17;2.25;;;12.70;91.40;;;;;;1871265;76;21006;-58
2023/03/21 08:47:56;;;;;;;3.77;1.47;;;12.80;91.30;;;;;;1871088;76;21100;-58
2023/03/21 08:50:28;;;;;;;2.47;1.30;;;12.80;91.40;;;;;;1871413;76;21015;-59
2023/03/21 08:52:57;;;;;;;2.37;1.00;;;12.80;91.20;;;;;;1871394;76;21084;-58
2023/03/21 08:55:26;;;;;;;3.17;1.60;;;12.80;91.20;;;;;;1871446;76;21076;-58
2023/03/21 08:57:56;;;;;;;1.98;1.45;;;12.80;91.30;;;;;;1880163;75;21042;-58
2023/03/21 09:00:26;;;;;;;4.40;1.72;;;12.80;91.40;;;;;;1896602;75;21103;-58
2023/03/21 09:02:56;;;;;;;4.40;2.12;;;12.80;91.40;;;;;;1895192;75;21104;-58
2023/03/21 09:05:27;;;;;;;7.65;2.30;;;12.90;90.80;;;;;;1894947;75;21540;-58
2023/03/21 09:07:56;;;;;;;5.40;2.85;;;12.80;90.70;;;;;;1895288;75;21018;-58
2023/03/21 09:10:25;;;;;;;4.15;2.60;;;12.80;90.90;;;;;;1895731;75;21061;-58
2023/03/21 09:12:55;;;;;;;3.60;2.40;;;12.80;90.90;;;;;;1895838;75;21147;-58
2023/03/21 09:15:27;;;;;;;16.65;7.45;;;12.80;90.90;;;;;;1895949;75;21079;-58
2023/03/21 09:18:11;;;;;;;12.10;6.37;;;12.80;90.90;;;;;;1893531;75;21027;-58
2023/03/21 09:20:31;;;;;;;8.88;3.87;;;12.70;90.80;;;;;;1894365;75;21030;-58
2023/03/21 09:23:00;;;;;;;6.75;2.02;;;12.70;90.80;;;;;;1894589;75;21170;-58
2023/03/21 09:25:29;;;;;;;7.25;3.60;;;12.70;91.00;;;;;;1895562;75;21464;-58
2023/03/21 09:27:59;;;;;;;4.22;2.58;;;12.70;90.80;;;;;;1895228;75;21018;-58
2023/03/21 09:30:29;;;;;;;9.43;4.50;;;12.70;90.80;;;;;;1892789;75;21107;-58
2023/03/21 09:33:00;;;;;;;8.13;1.62;;;12.70;91.00;;;;;;1891852;76;21069;-58
2023/03/21 09:35:30;;;;;;;5.17;2.80;;;12.80;90.90;;;;;;1891809;76;21029;-58
2023/03/21 09:38:00;;;;;;;9.23;3.20;;;12.80;90.80;;;;;;1891930;76;21115;-58
2023/03/21 09:40:51;;;;;;;5.47;1.92;;;12.80;90.90;;;;;;1891733;76;21033;-58
2023/03/21 09:43:32;;;;;;;11.05;5.37;;;12.80;90.70;;;;;;1893549;75;21037;-58
2023/03/21 09:46:06;;;;;;;18.05;10.58;;;12.80;90.70;;;;;;1893681;75;21072;-58
2023/03/21 09:48:58;;;;;;;11.08;6.78;;;12.80;90.90;;;;;;1892837;75;21029;-58
2023/03/21 09:51:30;;;;;;;9.08;6.53;;;12.90;90.80;;;;;;1895931;75;21021;-58
2023/03/21 09:54:02;;;;;;;10.70;5.05;;;12.90;90.70;;;;;;1895524;75;21057;-59
2023/03/21 09:56:31;;;;;;;6.37;2.72;;;12.90;90.60;;;;;;1892334;75;21006;-58
2023/03/21 09:59:02;;;;;;;15.55;9.83;;;12.90;90.80;;;;;;1890953;75;21041;-59
2023/03/21 10:01:34;;;;;;;7.42;3.72;;;12.90;90.70;;;;;;1882359;76;21018;-58
2023/03/21 10:04:07;;;;;;;11.60;5.47;;;12.90;90.80;;;;;;1885657;76;21488;-58
2023/03/21 10:06:40;;;;;;;18.17;10.63;;;12.90;90.70;;;;;;1884739;75;21101;-59
2023/03/21 10:09:27;;;;;;;14.40;6.60;;;12.90;90.80;;;;;;1876824;75;21054;-58
2023/03/21 10:12:06;;;;;;;6.67;2.87;;;13.00;90.50;;;;;;1891560;76;21025;-59
2023/03/21 10:14:50;;;;;;;6.15;3.15;;;13.00;90.60;;;;;;1891364;76;21159;-58
2023/03/21 10:17:25;;;;;;;12.23;6.40;;;12.90;90.20;;;;;;1891523;76;21104;-58
2023/03/21 10:20:15;;;;;;;6.50;2.92;;;12.90;90.10;;;;;;1888661;75;21035;-58
2023/03/21 10:22:46;;;;;;;6.10;3.25;;;13.00;90.30;;;;;;1880472;76;21487;-58
2023/03/21 10:25:21;;;;;;;8.75;5.05;;;13.00;90.30;;;;;;1874179;76;21099;-58
2023/03/21 10:27:51;;;;;;;;;;;13.00;90.50;;;;;;1879191;75;21036;-58
2023/03/21 10:30:29;;;;;;;6.10;3.15;;;13.00;90.20;;;;;;1884636;75;20112;-58
2023/03/21 10:33:03;;;;;;;5.95;1.60;;;13.00;90.30;;;;;;1881831;76;22442;-58
2023/03/21 10:35:35;;;;;;;14.25;8.25;;;13.00;90.20;;;;;;1884581;76;21041;-58
2023/03/21 10:38:06;;;;;;;9.28;5.28;;;13.00;90.30;;;;;;1888546;76;21459;-58
2023/03/21 10:40:35;;;;;;;14.80;8.18;;;13.10;90.50;;;;;;1885710;76;21050;-58
2023/03/21 10:43:36;;;;;;;16.62;9.73;;;13.20;90.60;;;;;;1884399;76;21154;-58
2023/03/21 10:46:10;;;;;;;5.15;2.55;;;13.30;90.60;;;;;;1884286;76;21139;-58
2023/03/21 10:48:45;;;;;;;13.30;5.10;;;13.30;90.30;;;;;;1884960;76;21058;-58
2023/03/21 10:51:15;;;;;;;13.55;5.92;;;13.30;90.30;;;;;;1885615;76;21026;-58
2023/03/21 10:53:59;;;;;;;14.58;6.05;;;13.30;90.30;;;;;;1885703;76;21014;-58
2023/03/21 10:56:31;;;;;;;4.03;2.20;;;13.40;90.30;;;;;;1849441;77;21104;-58
2023/03/21 10:59:01;;;;;;;9.00;4.90;;;13.40;90.30;;;;;;1798757;79;21086;-58
2023/03/21 11:01:33;;;;;;;27.02;12.58;;;13.40;90.20;;;;;;1870064;77;21035;-58
2023/03/21 11:04:23;;;;;;;7.15;3.58;;;13.40;90.30;;;;;;1867328;77;21168;-58
2023/03/21 11:06:55;;;;;;;13.90;5.70;;;13.50;90.30;;;;;;1870207;77;21050;-59
2023/03/21 11:09:27;;;;;;;9.98;5.12;;;13.50;90.00;;;;;;1870110;77;21097;-59
2023/03/21 11:12:05;;;;;;;7.60;2.72;;;13.40;89.90;;;;;;1870206;77;21074;-59
2023/03/21 11:14:40;;;;;;;5.53;3.45;;;13.50;90.00;;;;;;1870293;77;21030;-59
2023/03/21 11:17:22;;;;;;;18.48;8.75;;;13.40;90.00;;;;;;1870523;77;21516;-59
2023/03/21 11:19:59;;;;;;;13.70;6.47;;;13.50;90.00;;;;;;1870204;77;21517;-58
2023/03/21 11:22:30;;;;;;;13.25;6.35;;;13.40;89.80;;;;;;1870212;77;21465;-58
2023/03/21 11:25:05;;;;;;;16.60;9.45;;;13.40;90.10;;;;;;1868787;77;21104;-58
2023/03/21 11:27:34;;;;;;;15.83;8.13;;;13.40;90.00;;;;;;1870353;77;21519;-58
2023/03/21 11:30:05;;;;;;;29.80;13.78;;;13.40;89.60;;;;;;1870113;77;21015;-58
2023/03/21 11:32:38;;;;;;;13.40;8.18;;;13.40;90.10;;;;;;1870225;77;21014;-59
2023/03/21 11:35:16;;;;;;;8.40;4.30;;;13.40;90.10;;;;;;1870215;77;21113;-58
2023/03/21 11:37:49;;;;;;;15.65;8.78;;;13.50;90.10;;;;;;1870253;77;21115;-58
2023/03/21 11:40:24;;;;;;;8.00;6.10;;;13.50;90.10;;;;;;1870198;77;21046;-58
2023/03/21 11:42:58;;;;;;;17.17;8.15;;;13.50;90.00;;;;;;1870521;77;21067;-58
2023/03/21 11:45:29;;;;;;;16.32;10.90;;;13.40;90.00;;;;;;1870572;77;21038;-58
2023/03/21 11:48:01;;;;;;;17.02;9.05;;;13.40;89.80;;;;;;1870200;77;21058;-58
2023/03/21 11:50:41;;;;;;;17.17;7.75;;;13.40;90.00;;;;;;1870158;77;21034;-58
2023/03/21 11:53:42;;;;;;;12.47;4.95;;;13.40;89.60;;;;;;1870202;77;21031;-58
2023/03/21 11:56:26;;;;;;;11.38;4.05;;;13.40;90.00;;;;;;1869999;77;21038;-58
2023/03/21 11:59:03;;;;;;;14.87;8.43;;;13.40;89.30;;;;;;1871095;76;21334;-58
2023/03/21 12:01:38;;;;;;;15.68;6.83;;;13.30;89.90;;;;;;1891983;76;21061;-58
2023/03/21 12:04:41;;;;;;;14.00;7.65;;;13.30;89.40;;;;;;1891791;76;21033;-58
2023/03/21 12:07:29;;;;;;;8.90;3.95;;;13.30;89.70;;;;;;1892045;76;21083;-58
2023/03/21 12:10:22;;;;;;;9.95;5.45;;;13.30;89.20;;;;;;1891998;76;21100;-58
2023/03/21 12:12:57;;;;;;;15.05;9.48;;;13.30;89.30;;;;;;1891230;76;21099;-58
2023/03/21 12:15:37;;;;;;;16.15;7.10;;;13.20;89.50;;;;;;1891691;76;21570;-59
2023/03/21 12:18:15;;;;;;;24.18;10.55;;;13.20;89.70;;;;;;1891949;76;21116;-59
2023/03/21 12:20:52;;;;;;;20.65;12.05;;;13.20;90.00;;;;;;1891949;76;21054;-59
2023/03/21 12:23:39;;;;;;;25.37;8.48;;;13.20;89.70;;;;;;1891751;76;21037;-59
2023/03/21 12:26:26;;;;;;;20.55;10.38;;;13.20;89.70;;;;;;1891902;76;21073;-59
2023/03/21 12:29:13;;;;;;;12.55;6.37;;;13.20;89.20;;;;;;1891928;76;21096;-59
2023/03/21 12:31:45;;;;;;;14.20;9.58;;;13.20;89.40;;;;;;1891181;76;21073;-59
2023/03/21 12:34:33;;;;;;;23.00;13.22;;;13.10;89.20;;;;;;1891952;76;21091;-59
2023/03/21 12:37:23;;;;;;;14.43;7.08;;;13.10;89.70;;;;;;1891982;76;21037;-58
2023/03/21 12:39:55;;;;;;;16.52;10.13;;;13.10;89.90;;;;;;1890435;76;21111;-59
2023/03/21 12:42:26;;;;;;;14.87;7.60;;;13.10;89.70;;;;;;1891950;76;21432;-59
2023/03/21 12:44:58;;;;;;;9.23;5.83;;;13.10;89.90;;;;;;1892037;76;21151;-59
2023/03/21 12:47:30;;;;;;;8.65;5.83;;;13.20;89.50;;;;;;1891840;76;21057;-59
2023/03/21 12:50:02;;;;;;;10.05;6.30;;;13.10;89.40;;;;;;1891982;76;21444;-59
2023/03/21 12:52:36;;;;;;;9.43;6.45;;;13.10;89.20;;;;;;1890437;76;21555;-59
2023/03/21 12:55:20;;;;;;;9.33;4.65;;;13.10;89.10;;;;;;1890782;76;21480;-59
2023/03/21 12:58:07;;;;;;;6.20;4.12;;;13.00;88.80;;;;;;1891913;76;21018;-59
2023/03/21 13:00:39;;;;;;;5.55;3.40;;;13.00;88.90;;;;;;1885039;76;21099;-59
2023/03/21 13:03:23;;;;;;;16.50;10.78;;;13.00;89.20;;;;;;1879230;76;21036;-59
2023/03/21 13:06:03;;;;;;;6.60;4.03;;;13.00;89.20;;;;;;1879439;76;21126;-59
2023/03/21 13:08:45;;;;;;;10.82;7.47;;;13.00;88.70;;;;;;1879224;76;21035;-59
2023/03/21 13:11:19;;;;;;;24.02;10.15;;;13.00;89.30;;;;;;1844289;76;21103;-58
2023/03/21 13:13:58;;;;;;;11.45;7.08;;;13.00;89.50;;;;;;1879448;76;21105;-59
2023/03/21 13:16:30;;;;;;;7.35;4.70;;;13.00;89.30;;;;;;1860230;76;21063;-59